sensor_id;sensor_type;location;lat;lon;timestamp;P1;durP1;ratioP1;P2;durP2;ratioP2
84309;SDS011;74488;49.036;11.472;2024-02-26T00:00:13;11.23;;;7.53;;
84309;SDS011;74488;49.036;11.472;2024-02-26T00:01:15;8.13;;;6.93;;
84309;SDS011;74488;49.036;11.472;2024-02-26T00:02:17;7.53;;;6.70;;
84309;SDS011;74488;49.036;11.472;2024-02-26T00:03:19;8.02;;;7.20;;
84309;SDS011;74488;49.036;11.472;2024-02-26T00:04:21;8.52;;;6.85;;
84309;SDS011;74488;49.036;11.472;2024-02-26T00:05:23;7.63;;;6.63;;
84309;SDS011;74488;49.036;11.472;2024-02-26T00:06:25;9.40;;;6.72;;
84309;SDS011;74488;49.036;11.472;2024-02-26T00:07:26;8.60;;;7.65;;
84309;SDS011;74488;49.036;11.472;2024-02-26T00:08:28;8.88;;;6.43;;
84309;SDS011;74488;49.036;11.472;2024-02-26T00:09:29;8.15;;;6.43;;
84309;SDS011;74488;49.036;11.472;2024-02-26T00:10:31;8.50;;;7.10;;
84309;SDS011;74488;49.036;11.472;2024-02-26T00:11:33;8.40;;;6.72;;
84309;SDS011;74488;49.036;11.472;2024-02-26T00:12:35;8.52;;;7.65;;
84309;SDS011;74488;49.036;11.472;2024-02-26T00:13:36;12.07;;;10.88;;
84309;SDS011;74488;49.036;11.472;2024-02-26T00:14:38;7.70;;;6.68;;
84309;SDS011;74488;49.036;11.472;2024-02-26T00:15:39;9.38;;;6.95;;
84309;SDS011;74488;49.036;11.472;2024-02-26T00:16:41;8.07;;;6.80;;
84309;SDS011;74488;49.036;11.472;2024-02-26T00:17:43;8.73;;;6.80;;
84309;SDS011;74488;49.036;11.472;2024-02-26T00:18:44;7.80;;;5.78;;
84309;SDS011;74488;49.036;11.472;2024-02-26T00:19:50;8.60;;;6.60;;
84309;SDS011;74488;49.036;11.472;2024-02-26T00:20:52;8.10;;;6.53;;
84309;SDS011;74488;49.036;11.472;2024-02-26T00:21:53;8.00;;;6.30;;
84309;SDS011;74488;49.036;11.472;2024-02-26T00:22:56;7.50;;;6.80;;
84309;SDS011;74488;49.036;11.472;2024-02-26T00:23:58;7.93;;;7.13;;
84309;SDS011;74488;49.036;11.472;2024-02-26T00:24:59;8.75;;;6.22;;
84309;SDS011;74488;49.036;11.472;2024-02-26T00:26:01;8.70;;;7.05;;
84309;SDS011;74488;49.036;11.472;2024-02-26T00:27:02;7.70;;;6.90;;
84309;SDS011;74488;49.036;11.472;2024-02-26T00:28:04;8.57;;;6.80;;
84309;SDS011;74488;49.036;11.472;2024-02-26T00:29:06;7.90;;;7.10;;
84309;SDS011;74488;49.036;11.472;2024-02-26T00:30:08;8.10;;;7.18;;
84309;SDS011;74488;49.036;11.472;2024-02-26T00:31:10;7.45;;;6.35;;
84309;SDS011;74488;49.036;11.472;2024-02-26T00:32:12;6.97;;;6.13;;
84309;SDS011;74488;49.036;11.472;2024-02-26T00:33:16;7.95;;;7.15;;
84309;SDS011;74488;49.036;11.472;2024-02-26T00:34:18;9.98;;;7.47;;
84309;SDS011;74488;49.036;11.472;2024-02-26T00:35:20;13.43;;;12.18;;
84309;SDS011;74488;49.036;11.472;2024-02-26T00:36:21;7.90;;;7.00;;
84309;SDS011;74488;49.036;11.472;2024-02-26T00:37:23;7.75;;;6.95;;
84309;SDS011;74488;49.036;11.472;2024-02-26T00:38:24;8.43;;;7.68;;
84309;SDS011;74488;49.036;11.472;2024-02-26T00:39:26;9.23;;;7.38;;
84309;SDS011;74488;49.036;11.472;2024-02-26T00:40:27;11.52;;;10.52;;
84309;SDS011;74488;49.036;11.472;2024-02-26T00:41:29;7.82;;;6.90;;
84309;SDS011;74488;49.036;11.472;2024-02-26T00:42:31;9.43;;;6.65;;
84309;SDS011;74488;49.036;11.472;2024-02-26T00:43:32;8.48;;;7.18;;
84309;SDS011;74488;49.036;11.472;2024-02-26T00:44:34;7.75;;;6.90;;
84309;SDS011;74488;49.036;11.472;2024-02-26T00:45:35;7.88;;;6.70;;
84309;SDS011;74488;49.036;11.472;2024-02-26T00:46:37;9.18;;;7.20;;
84309;SDS011;74488;49.036;11.472;2024-02-26T00:47:38;10.15;;;6.72;;
84309;SDS011;74488;49.036;11.472;2024-02-26T00:48:42;11.30;;;8.15;;
84309;SDS011;74488;49.036;11.472;2024-02-26T00:49:44;10.65;;;7.28;;
84309;SDS011;74488;49.036;11.472;2024-02-26T00:50:46;8.18;;;7.47;;
84309;SDS011;74488;49.036;11.472;2024-02-26T00:51:48;11.48;;;7.60;;
84309;SDS011;74488;49.036;11.472;2024-02-26T00:52:49;14.15;;;13.05;;
84309;SDS011;74488;49.036;11.472;2024-02-26T00:53:51;9.15;;;7.53;;
84309;SDS011;74488;49.036;11.472;2024-02-26T00:54:52;8.88;;;7.97;;
84309;SDS011;74488;49.036;11.472;2024-02-26T00:55:54;77.53;;;42.78;;
84309;SDS011;74488;49.036;11.472;2024-02-26T00:56:55;85.32;;;49.08;;
84309;SDS011;74488;49.036;11.472;2024-02-26T00:57:57;70.68;;;40.65;;
84309;SDS011;74488;49.036;11.472;2024-02-26T00:58:58;38.38;;;22.30;;
84309;SDS011;74488;49.036;11.472;2024-02-26T01:00:00;23.90;;;19.65;;
84309;SDS011;74488;49.036;11.472;2024-02-26T01:01:02;14.23;;;11.30;;
84309;SDS011;74488;49.036;11.472;2024-02-26T01:02:04;16.83;;;12.07;;
84309;SDS011;74488;49.036;11.472;2024-02-26T01:03:07;15.55;;;10.70;;
84309;SDS011;74488;49.036;11.472;2024-02-26T01:04:11;10.75;;;9.52;;
84309;SDS011;74488;49.036;11.472;2024-02-26T01:05:13;11.90;;;8.55;;
84309;SDS011;74488;49.036;11.472;2024-02-26T01:06:16;11.05;;;8.88;;
84309;SDS011;74488;49.036;11.472;2024-02-26T01:07:19;8.98;;;7.65;;
84309;SDS011;74488;49.036;11.472;2024-02-26T01:08:21;8.98;;;8.07;;
84309;SDS011;74488;49.036;11.472;2024-02-26T01:09:22;9.18;;;7.57;;
84309;SDS011;74488;49.036;11.472;2024-02-26T01:10:24;10.07;;;7.07;;
84309;SDS011;74488;49.036;11.472;2024-02-26T01:11:25;9.65;;;7.85;;
84309;SDS011;74488;49.036;11.472;2024-02-26T01:12:27;10.00;;;7.75;;
84309;SDS011;74488;49.036;11.472;2024-02-26T01:13:29;8.25;;;7.40;;
84309;SDS011;74488;49.036;11.472;2024-02-26T01:14:31;10.32;;;8.18;;
84309;SDS011;74488;49.036;11.472;2024-02-26T01:15:32;7.97;;;6.80;;
84309;SDS011;74488;49.036;11.472;2024-02-26T01:16:33;8.77;;;7.88;;
84309;SDS011;74488;49.036;11.472;2024-02-26T01:17:35;8.20;;;7.40;;
84309;SDS011;74488;49.036;11.472;2024-02-26T01:18:37;9.55;;;7.40;;
84309;SDS011;74488;49.036;11.472;2024-02-26T01:19:38;13.57;;;12.27;;
84309;SDS011;74488;49.036;11.472;2024-02-26T01:20:40;8.23;;;7.43;;
84309;SDS011;74488;49.036;11.472;2024-02-26T01:21:41;9.80;;;7.75;;
84309;SDS011;74488;49.036;11.472;2024-02-26T01:22:43;9.85;;;6.65;;
84309;SDS011;74488;49.036;11.472;2024-02-26T01:23:45;14.38;;;13.18;;
84309;SDS011;74488;49.036;11.472;2024-02-26T01:24:47;10.00;;;8.02;;
84309;SDS011;74488;49.036;11.472;2024-02-26T01:25:48;9.48;;;6.68;;
84309;SDS011;74488;49.036;11.472;2024-02-26T01:26:50;9.70;;;7.25;;
84309;SDS011;74488;49.036;11.472;2024-02-26T01:27:51;10.32;;;7.80;;
84309;SDS011;74488;49.036;11.472;2024-02-26T01:28:53;10.35;;;9.20;;
84309;SDS011;74488;49.036;11.472;2024-02-26T01:29:56;11.30;;;7.15;;
84309;SDS011;74488;49.036;11.472;2024-02-26T01:30:57;8.98;;;7.40;;
84309;SDS011;74488;49.036;11.472;2024-02-26T01:31:59;11.05;;;7.70;;
84309;SDS011;74488;49.036;11.472;2024-02-26T01:33:01;9.88;;;7.28;;
84309;SDS011;74488;49.036;11.472;2024-02-26T01:34:03;8.88;;;6.20;;
84309;SDS011;74488;49.036;11.472;2024-02-26T01:35:04;9.18;;;7.72;;
84309;SDS011;74488;49.036;11.472;2024-02-26T01:36:08;12.48;;;11.38;;
84309;SDS011;74488;49.036;11.472;2024-02-26T01:37:10;8.82;;;7.07;;
84309;SDS011;74488;49.036;11.472;2024-02-26T01:38:11;10.13;;;7.18;;
84309;SDS011;74488;49.036;11.472;2024-02-26T01:39:13;10.05;;;7.40;;
84309;SDS011;74488;49.036;11.472;2024-02-26T01:40:15;7.65;;;6.82;;
84309;SDS011;74488;49.036;11.472;2024-02-26T01:41:20;7.95;;;6.95;;
84309;SDS011;74488;49.036;11.472;2024-02-26T01:42:22;13.57;;;12.13;;
84309;SDS011;74488;49.036;11.472;2024-02-26T01:43:24;8.73;;;7.82;;
84309;SDS011;74488;49.036;11.472;2024-02-26T01:44:26;8.52;;;6.88;;
84309;SDS011;74488;49.036;11.472;2024-02-26T01:45:27;9.32;;;7.95;;
84309;SDS011;74488;49.036;11.472;2024-02-26T01:46:29;10.13;;;8.30;;
84309;SDS011;74488;49.036;11.472;2024-02-26T01:47:34;11.05;;;8.38;;
84309;SDS011;74488;49.036;11.472;2024-02-26T01:48:36;13.38;;;12.10;;
84309;SDS011;74488;49.036;11.472;2024-02-26T01:49:37;9.48;;;8.00;;
84309;SDS011;74488;49.036;11.472;2024-02-26T01:50:40;9.27;;;7.38;;
84309;SDS011;74488;49.036;11.472;2024-02-26T01:51:42;10.68;;;7.93;;
84309;SDS011;74488;49.036;11.472;2024-02-26T01:52:45;9.90;;;8.15;;
84309;SDS011;74488;49.036;11.472;2024-02-26T01:53:48;11.32;;;8.43;;
84309;SDS011;74488;49.036;11.472;2024-02-26T01:54:50;8.55;;;7.63;;
84309;SDS011;74488;49.036;11.472;2024-02-26T01:55:51;13.38;;;8.90;;
84309;SDS011;74488;49.036;11.472;2024-02-26T01:56:53;13.70;;;9.35;;
84309;SDS011;74488;49.036;11.472;2024-02-26T01:57:55;10.23;;;9.27;;
84309;SDS011;74488;49.036;11.472;2024-02-26T01:58:57;12.48;;;7.97;;
84309;SDS011;74488;49.036;11.472;2024-02-26T01:59:59;9.00;;;7.75;;
84309;SDS011;74488;49.036;11.472;2024-02-26T02:01:01;9.45;;;8.32;;
84309;SDS011;74488;49.036;11.472;2024-02-26T02:02:05;9.93;;;8.25;;
84309;SDS011;74488;49.036;11.472;2024-02-26T02:03:10;13.75;;;12.55;;
84309;SDS011;74488;49.036;11.472;2024-02-26T02:04:11;11.13;;;7.38;;
84309;SDS011;74488;49.036;11.472;2024-02-26T02:05:14;10.52;;;8.00;;
84309;SDS011;74488;49.036;11.472;2024-02-26T02:06:18;11.30;;;9.23;;
84309;SDS011;74488;49.036;11.472;2024-02-26T02:07:20;14.18;;;12.68;;
84309;SDS011;74488;49.036;11.472;2024-02-26T02:08:24;15.65;;;14.30;;
84309;SDS011;74488;49.036;11.472;2024-02-26T02:09:26;9.95;;;7.75;;
84309;SDS011;74488;49.036;11.472;2024-02-26T02:10:28;12.73;;;9.48;;
84309;SDS011;74488;49.036;11.472;2024-02-26T02:11:30;12.65;;;8.57;;
84309;SDS011;74488;49.036;11.472;2024-02-26T02:12:32;15.60;;;14.10;;
84309;SDS011;74488;49.036;11.472;2024-02-26T02:13:35;10.10;;;8.30;;
84309;SDS011;74488;49.036;11.472;2024-02-26T02:14:36;13.50;;;8.35;;
84309;SDS011;74488;49.036;11.472;2024-02-26T02:15:38;13.07;;;9.82;;
84309;SDS011;74488;49.036;11.472;2024-02-26T02:16:40;12.75;;;10.60;;
84309;SDS011;74488;49.036;11.472;2024-02-26T02:17:41;13.50;;;9.70;;
84309;SDS011;74488;49.036;11.472;2024-02-26T02:18:43;12.88;;;10.35;;
84309;SDS011;74488;49.036;11.472;2024-02-26T02:19:45;13.50;;;9.38;;
84309;SDS011;74488;49.036;11.472;2024-02-26T02:20:46;15.32;;;11.60;;
84309;SDS011;74488;49.036;11.472;2024-02-26T02:21:48;14.00;;;10.77;;
84309;SDS011;74488;49.036;11.472;2024-02-26T02:22:49;15.88;;;10.48;;
84309;SDS011;74488;49.036;11.472;2024-02-26T02:23:51;13.38;;;10.27;;
84309;SDS011;74488;49.036;11.472;2024-02-26T02:24:52;13.55;;;9.93;;
84309;SDS011;74488;49.036;11.472;2024-02-26T02:25:54;12.07;;;10.25;;
84309;SDS011;74488;49.036;11.472;2024-02-26T02:26:58;15.18;;;11.40;;
84309;SDS011;74488;49.036;11.472;2024-02-26T02:28:00;17.42;;;15.63;;
84309;SDS011;74488;49.036;11.472;2024-02-26T02:29:02;15.32;;;9.77;;
84309;SDS011;74488;49.036;11.472;2024-02-26T02:30:04;13.52;;;10.18;;
84309;SDS011;74488;49.036;11.472;2024-02-26T02:31:08;14.30;;;10.57;;
84309;SDS011;74488;49.036;11.472;2024-02-26T02:32:10;12.85;;;8.98;;
84309;SDS011;74488;49.036;11.472;2024-02-26T02:33:11;12.43;;;9.50;;
84309;SDS011;74488;49.036;11.472;2024-02-26T02:34:14;15.75;;;9.32;;
84309;SDS011;74488;49.036;11.472;2024-02-26T02:35:16;11.48;;;9.45;;
84309;SDS011;74488;49.036;11.472;2024-02-26T02:36:17;15.60;;;12.93;;
84309;SDS011;74488;49.036;11.472;2024-02-26T02:37:19;13.27;;;8.82;;
84309;SDS011;74488;49.036;11.472;2024-02-26T02:38:20;13.43;;;10.68;;
84309;SDS011;74488;49.036;11.472;2024-02-26T02:39:22;16.73;;;15.15;;
84309;SDS011;74488;49.036;11.472;2024-02-26T02:40:24;10.30;;;7.93;;
84309;SDS011;74488;49.036;11.472;2024-02-26T02:41:25;14.02;;;9.65;;
84309;SDS011;74488;49.036;11.472;2024-02-26T02:42:28;17.65;;;10.10;;
84309;SDS011;74488;49.036;11.472;2024-02-26T02:43:30;14.45;;;9.55;;
84309;SDS011;74488;49.036;11.472;2024-02-26T02:44:31;16.15;;;12.38;;
84309;SDS011;74488;49.036;11.472;2024-02-26T02:45:33;16.73;;;10.57;;
84309;SDS011;74488;49.036;11.472;2024-02-26T02:46:34;16.42;;;10.38;;
84309;SDS011;74488;49.036;11.472;2024-02-26T02:47:36;12.48;;;9.07;;
84309;SDS011;74488;49.036;11.472;2024-02-26T02:48:39;13.43;;;9.80;;
84309;SDS011;74488;49.036;11.472;2024-02-26T02:49:41;12.55;;;9.05;;
84309;SDS011;74488;49.036;11.472;2024-02-26T02:50:42;13.32;;;10.75;;
84309;SDS011;74488;49.036;11.472;2024-02-26T02:51:44;14.23;;;9.65;;
84309;SDS011;74488;49.036;11.472;2024-02-26T02:52:46;13.48;;;9.30;;
84309;SDS011;74488;49.036;11.472;2024-02-26T02:53:48;15.63;;;14.00;;
84309;SDS011;74488;49.036;11.472;2024-02-26T02:54:49;12.05;;;9.98;;
84309;SDS011;74488;49.036;11.472;2024-02-26T02:55:51;13.73;;;10.80;;
84309;SDS011;74488;49.036;11.472;2024-02-26T02:56:52;17.08;;;11.50;;
84309;SDS011;74488;49.036;11.472;2024-02-26T02:57:54;16.17;;;9.13;;
84309;SDS011;74488;49.036;11.472;2024-02-26T02:58:56;14.30;;;10.02;;
84309;SDS011;74488;49.036;11.472;2024-02-26T02:59:57;15.50;;;9.23;;
84309;SDS011;74488;49.036;11.472;2024-02-26T03:00:59;14.68;;;9.13;;
84309;SDS011;74488;49.036;11.472;2024-02-26T03:02:02;15.15;;;10.18;;
84309;SDS011;74488;49.036;11.472;2024-02-26T03:03:03;14.90;;;9.95;;
84309;SDS011;74488;49.036;11.472;2024-02-26T03:04:05;17.98;;;16.17;;
84309;SDS011;74488;49.036;11.472;2024-02-26T03:05:07;16.30;;;11.60;;
84309;SDS011;74488;49.036;11.472;2024-02-26T03:06:09;16.05;;;10.85;;
84309;SDS011;74488;49.036;11.472;2024-02-26T03:07:10;13.85;;;10.32;;
84309;SDS011;74488;49.036;11.472;2024-02-26T03:08:12;13.13;;;8.63;;
84309;SDS011;74488;49.036;11.472;2024-02-26T03:09:13;14.65;;;10.88;;
84309;SDS011;74488;49.036;11.472;2024-02-26T03:10:15;13.25;;;9.98;;
84309;SDS011;74488;49.036;11.472;2024-02-26T03:11:16;12.68;;;9.90;;
84309;SDS011;74488;49.036;11.472;2024-02-26T03:12:18;15.38;;;10.60;;
84309;SDS011;74488;49.036;11.472;2024-02-26T03:13:19;14.68;;;11.10;;
84309;SDS011;74488;49.036;11.472;2024-02-26T03:14:21;16.92;;;15.27;;
84309;SDS011;74488;49.036;11.472;2024-02-26T03:15:23;14.48;;;9.25;;
84309;SDS011;74488;49.036;11.472;2024-02-26T03:16:24;16.80;;;10.77;;
84309;SDS011;74488;49.036;11.472;2024-02-26T03:17:26;15.27;;;12.05;;
84309;SDS011;74488;49.036;11.472;2024-02-26T03:18:27;14.68;;;12.25;;
84309;SDS011;74488;49.036;11.472;2024-02-26T03:19:29;17.15;;;12.35;;
84309;SDS011;74488;49.036;11.472;2024-02-26T03:20:30;17.27;;;10.50;;
84309;SDS011;74488;49.036;11.472;2024-02-26T03:21:32;13.95;;;9.98;;
84309;SDS011;74488;49.036;11.472;2024-02-26T03:22:33;13.30;;;10.77;;
84309;SDS011;74488;49.036;11.472;2024-02-26T03:23:35;16.13;;;11.75;;
84309;SDS011;74488;49.036;11.472;2024-02-26T03:24:37;15.02;;;11.02;;
84309;SDS011;74488;49.036;11.472;2024-02-26T03:25:39;15.95;;;10.75;;
84309;SDS011;74488;49.036;11.472;2024-02-26T03:26:40;13.88;;;11.25;;
84309;SDS011;74488;49.036;11.472;2024-02-26T03:27:42;14.48;;;10.05;;
84309;SDS011;74488;49.036;11.472;2024-02-26T03:28:43;14.98;;;10.48;;
84309;SDS011;74488;49.036;11.472;2024-02-26T03:29:45;15.23;;;11.27;;
84309;SDS011;74488;49.036;11.472;2024-02-26T03:30:47;15.35;;;11.18;;
84309;SDS011;74488;49.036;11.472;2024-02-26T03:31:48;17.85;;;16.02;;
84309;SDS011;74488;49.036;11.472;2024-02-26T03:32:50;16.98;;;10.77;;
84309;SDS011;74488;49.036;11.472;2024-02-26T03:33:51;14.80;;;10.52;;
84309;SDS011;74488;49.036;11.472;2024-02-26T03:34:53;19.08;;;17.20;;
84309;SDS011;74488;49.036;11.472;2024-02-26T03:35:57;15.88;;;10.55;;
84309;SDS011;74488;49.036;11.472;2024-02-26T03:36:58;16.42;;;10.63;;
84309;SDS011;74488;49.036;11.472;2024-02-26T03:38:01;21.00;;;17.35;;
84309;SDS011;74488;49.036;11.472;2024-02-26T03:39:03;19.52;;;12.27;;
84309;SDS011;74488;49.036;11.472;2024-02-26T03:40:09;15.20;;;10.82;;
84309;SDS011;74488;49.036;11.472;2024-02-26T03:41:11;18.55;;;11.73;;
84309;SDS011;74488;49.036;11.472;2024-02-26T03:42:12;15.98;;;11.85;;
84309;SDS011;74488;49.036;11.472;2024-02-26T03:43:14;16.90;;;11.63;;
84309;SDS011;74488;49.036;11.472;2024-02-26T03:44:15;16.30;;;13.43;;
84309;SDS011;74488;49.036;11.472;2024-02-26T03:45:17;16.70;;;10.77;;
84309;SDS011;74488;49.036;11.472;2024-02-26T03:46:19;18.70;;;12.48;;
84309;SDS011;74488;49.036;11.472;2024-02-26T03:47:21;19.42;;;12.98;;
84309;SDS011;74488;49.036;11.472;2024-02-26T03:48:22;17.00;;;11.80;;
84309;SDS011;74488;49.036;11.472;2024-02-26T03:49:24;20.52;;;13.80;;
84309;SDS011;74488;49.036;11.472;2024-02-26T03:50:25;18.42;;;12.32;;
84309;SDS011;74488;49.036;11.472;2024-02-26T03:51:27;16.58;;;11.95;;
84309;SDS011;74488;49.036;11.472;2024-02-26T03:52:32;19.73;;;13.68;;
84309;SDS011;74488;49.036;11.472;2024-02-26T03:53:35;17.05;;;12.18;;
84309;SDS011;74488;49.036;11.472;2024-02-26T03:54:36;19.60;;;11.75;;
84309;SDS011;74488;49.036;11.472;2024-02-26T03:55:38;21.00;;;14.77;;
84309;SDS011;74488;49.036;11.472;2024-02-26T03:56:39;20.98;;;13.23;;
84309;SDS011;74488;49.036;11.472;2024-02-26T03:57:41;20.15;;;14.05;;
84309;SDS011;74488;49.036;11.472;2024-02-26T03:58:42;19.52;;;12.45;;
84309;SDS011;74488;49.036;11.472;2024-02-26T03:59:44;15.52;;;10.77;;
84309;SDS011;74488;49.036;11.472;2024-02-26T04:00:45;17.55;;;12.15;;
84309;SDS011;74488;49.036;11.472;2024-02-26T04:01:49;18.90;;;11.70;;
84309;SDS011;74488;49.036;11.472;2024-02-26T04:02:50;20.48;;;11.57;;
84309;SDS011;74488;49.036;11.472;2024-02-26T04:03:52;16.85;;;12.10;;
84309;SDS011;74488;49.036;11.472;2024-02-26T04:04:54;21.27;;;18.92;;
84309;SDS011;74488;49.036;11.472;2024-02-26T04:05:55;23.38;;;14.32;;
84309;SDS011;74488;49.036;11.472;2024-02-26T04:06:57;23.63;;;15.90;;
84309;SDS011;74488;49.036;11.472;2024-02-26T04:07:59;27.70;;;16.30;;
84309;SDS011;74488;49.036;11.472;2024-02-26T04:09:00;23.02;;;16.73;;
84309;SDS011;74488;49.036;11.472;2024-02-26T04:11:10;17.75;;;11.45;;
84309;SDS011;74488;49.036;11.472;2024-02-26T04:12:11;14.23;;;11.45;;
84309;SDS011;74488;49.036;11.472;2024-02-26T04:13:13;17.95;;;12.15;;
84309;SDS011;74488;49.036;11.472;2024-02-26T04:14:14;19.42;;;12.23;;
84309;SDS011;74488;49.036;11.472;2024-02-26T04:15:16;22.50;;;15.27;;
84309;SDS011;74488;49.036;11.472;2024-02-26T04:16:18;23.15;;;15.85;;
84309;SDS011;74488;49.036;11.472;2024-02-26T04:17:19;25.48;;;15.48;;
84309;SDS011;74488;49.036;11.472;2024-02-26T04:18:21;19.45;;;15.00;;
84309;SDS011;74488;49.036;11.472;2024-02-26T04:19:22;24.65;;;19.42;;
84309;SDS011;74488;49.036;11.472;2024-02-26T04:20:24;20.40;;;12.98;;
84309;SDS011;74488;49.036;11.472;2024-02-26T04:21:26;22.50;;;13.70;;
84309;SDS011;74488;49.036;11.472;2024-02-26T04:22:28;22.48;;;13.55;;
84309;SDS011;74488;49.036;11.472;2024-02-26T04:23:29;19.02;;;14.32;;
84309;SDS011;74488;49.036;11.472;2024-02-26T04:24:31;25.60;;;21.05;;
84309;SDS011;74488;49.036;11.472;2024-02-26T04:25:32;24.10;;;14.88;;
84309;SDS011;74488;49.036;11.472;2024-02-26T04:26:34;23.88;;;15.88;;
84309;SDS011;74488;49.036;11.472;2024-02-26T04:27:36;26.63;;;14.80;;
84309;SDS011;74488;49.036;11.472;2024-02-26T04:28:38;26.73;;;16.77;;
84309;SDS011;74488;49.036;11.472;2024-02-26T04:29:39;23.95;;;17.25;;
84309;SDS011;74488;49.036;11.472;2024-02-26T04:30:41;26.48;;;15.70;;
84309;SDS011;74488;49.036;11.472;2024-02-26T04:31:42;27.23;;;16.77;;
84309;SDS011;74488;49.036;11.472;2024-02-26T04:32:44;27.95;;;15.57;;
84309;SDS011;74488;49.036;11.472;2024-02-26T04:33:46;26.98;;;15.35;;
84309;SDS011;74488;49.036;11.472;2024-02-26T04:34:47;21.10;;;14.45;;
84309;SDS011;74488;49.036;11.472;2024-02-26T04:35:49;30.50;;;21.63;;
84309;SDS011;74488;49.036;11.472;2024-02-26T04:36:51;23.38;;;13.77;;
84309;SDS011;74488;49.036;11.472;2024-02-26T04:37:52;21.77;;;14.82;;
84309;SDS011;74488;49.036;11.472;2024-02-26T04:38:53;23.42;;;14.50;;
84309;SDS011;74488;49.036;11.472;2024-02-26T04:41:00;21.75;;;13.02;;
84309;SDS011;74488;49.036;11.472;2024-02-26T04:42:02;25.92;;;14.52;;
84309;SDS011;74488;49.036;11.472;2024-02-26T04:43:05;23.08;;;13.60;;
84309;SDS011;74488;49.036;11.472;2024-02-26T04:44:06;21.90;;;14.50;;
84309;SDS011;74488;49.036;11.472;2024-02-26T04:45:08;23.02;;;15.20;;
84309;SDS011;74488;49.036;11.472;2024-02-26T04:46:10;22.38;;;14.30;;
84309;SDS011;74488;49.036;11.472;2024-02-26T04:47:11;22.85;;;13.85;;
84309;SDS011;74488;49.036;11.472;2024-02-26T04:48:14;21.95;;;14.05;;
84309;SDS011;74488;49.036;11.472;2024-02-26T04:49:16;19.83;;;14.93;;
84309;SDS011;74488;49.036;11.472;2024-02-26T04:50:17;21.38;;;14.57;;
84309;SDS011;74488;49.036;11.472;2024-02-26T04:51:19;22.67;;;13.02;;
84309;SDS011;74488;49.036;11.472;2024-02-26T04:52:21;23.50;;;15.35;;
84309;SDS011;74488;49.036;11.472;2024-02-26T04:53:22;21.27;;;13.35;;
84309;SDS011;74488;49.036;11.472;2024-02-26T04:54:24;24.10;;;19.73;;
84309;SDS011;74488;49.036;11.472;2024-02-26T04:55:25;23.13;;;15.40;;
84309;SDS011;74488;49.036;11.472;2024-02-26T04:56:27;24.45;;;14.88;;
84309;SDS011;74488;49.036;11.472;2024-02-26T04:57:28;23.52;;;15.30;;
84309;SDS011;74488;49.036;11.472;2024-02-26T04:58:30;25.40;;;19.48;;
84309;SDS011;74488;49.036;11.472;2024-02-26T04:59:32;27.98;;;21.40;;
84309;SDS011;74488;49.036;11.472;2024-02-26T05:00:34;26.63;;;15.90;;
84309;SDS011;74488;49.036;11.472;2024-02-26T05:01:35;25.27;;;20.98;;
84309;SDS011;74488;49.036;11.472;2024-02-26T05:02:38;28.23;;;16.58;;
84309;SDS011;74488;49.036;11.472;2024-02-26T05:03:39;21.20;;;14.45;;
84309;SDS011;74488;49.036;11.472;2024-02-26T05:04:41;24.92;;;15.43;;
84309;SDS011;74488;49.036;11.472;2024-02-26T05:05:43;22.27;;;14.30;;
84309;SDS011;74488;49.036;11.472;2024-02-26T05:06:45;22.55;;;14.20;;
84309;SDS011;74488;49.036;11.472;2024-02-26T05:07:46;21.38;;;14.10;;
84309;SDS011;74488;49.036;11.472;2024-02-26T05:08:48;22.70;;;14.63;;
84309;SDS011;74488;49.036;11.472;2024-02-26T05:09:49;22.08;;;15.70;;
84309;SDS011;74488;49.036;11.472;2024-02-26T05:10:51;27.80;;;21.63;;
84309;SDS011;74488;49.036;11.472;2024-02-26T05:11:52;25.08;;;13.45;;
84309;SDS011;74488;49.036;11.472;2024-02-26T05:12:54;22.85;;;15.02;;
84309;SDS011;74488;49.036;11.472;2024-02-26T05:13:56;22.05;;;14.05;;
84309;SDS011;74488;49.036;11.472;2024-02-26T05:14:57;20.77;;;12.77;;
84309;SDS011;74488;49.036;11.472;2024-02-26T05:15:59;18.90;;;13.52;;
84309;SDS011;74488;49.036;11.472;2024-02-26T05:17:00;24.02;;;14.77;;
84309;SDS011;74488;49.036;11.472;2024-02-26T05:18:03;24.58;;;15.80;;
84309;SDS011;74488;49.036;11.472;2024-02-26T05:19:05;22.90;;;14.43;;
84309;SDS011;74488;49.036;11.472;2024-02-26T05:20:07;23.02;;;13.32;;
84309;SDS011;74488;49.036;11.472;2024-02-26T05:21:09;22.95;;;14.45;;
84309;SDS011;74488;49.036;11.472;2024-02-26T05:22:11;25.35;;;14.10;;
84309;SDS011;74488;49.036;11.472;2024-02-26T05:23:12;22.30;;;14.98;;
84309;SDS011;74488;49.036;11.472;2024-02-26T05:24:14;22.38;;;14.02;;
84309;SDS011;74488;49.036;11.472;2024-02-26T05:25:17;24.27;;;14.00;;
84309;SDS011;74488;49.036;11.472;2024-02-26T05:26:19;23.95;;;14.40;;
84309;SDS011;74488;49.036;11.472;2024-02-26T05:27:21;24.20;;;14.55;;
84309;SDS011;74488;49.036;11.472;2024-02-26T05:28:23;22.27;;;15.13;;
84309;SDS011;74488;49.036;11.472;2024-02-26T05:29:24;21.90;;;12.98;;
84309;SDS011;74488;49.036;11.472;2024-02-26T05:30:26;24.05;;;14.77;;
84309;SDS011;74488;49.036;11.472;2024-02-26T05:31:29;23.67;;;15.38;;
84309;SDS011;74488;49.036;11.472;2024-02-26T05:32:31;25.08;;;17.80;;
84309;SDS011;74488;49.036;11.472;2024-02-26T05:33:32;27.65;;;17.67;;
84309;SDS011;74488;49.036;11.472;2024-02-26T05:34:34;28.15;;;16.45;;
84309;SDS011;74488;49.036;11.472;2024-02-26T05:35:36;31.05;;;18.85;;
84309;SDS011;74488;49.036;11.472;2024-02-26T05:36:38;34.85;;;19.20;;
84309;SDS011;74488;49.036;11.472;2024-02-26T05:37:40;33.05;;;19.50;;
84309;SDS011;74488;49.036;11.472;2024-02-26T05:38:42;30.20;;;19.42;;
84309;SDS011;74488;49.036;11.472;2024-02-26T05:39:43;33.58;;;27.33;;
84309;SDS011;74488;49.036;11.472;2024-02-26T05:40:45;32.17;;;23.75;;
84309;SDS011;74488;49.036;11.472;2024-02-26T05:41:47;26.50;;;16.77;;
84309;SDS011;74488;49.036;11.472;2024-02-26T05:42:48;35.38;;;26.17;;
84309;SDS011;74488;49.036;11.472;2024-02-26T05:43:50;26.50;;;15.70;;
84309;SDS011;74488;49.036;11.472;2024-02-26T05:44:52;31.88;;;19.02;;
84309;SDS011;74488;49.036;11.472;2024-02-26T05:45:53;29.40;;;20.60;;
84309;SDS011;74488;49.036;11.472;2024-02-26T05:46:55;28.52;;;17.83;;
84309;SDS011;74488;49.036;11.472;2024-02-26T05:47:56;28.00;;;17.90;;
84309;SDS011;74488;49.036;11.472;2024-02-26T05:48:58;33.38;;;19.83;;
84309;SDS011;74488;49.036;11.472;2024-02-26T05:49:59;31.40;;;22.45;;
84309;SDS011;74488;49.036;11.472;2024-02-26T05:51:02;32.20;;;20.48;;
84309;SDS011;74488;49.036;11.472;2024-02-26T05:52:04;29.00;;;17.60;;
84309;SDS011;74488;49.036;11.472;2024-02-26T05:53:06;28.30;;;17.33;;
84309;SDS011;74488;49.036;11.472;2024-02-26T05:54:07;28.15;;;17.25;;
84309;SDS011;74488;49.036;11.472;2024-02-26T05:55:09;29.83;;;18.88;;
84309;SDS011;74488;49.036;11.472;2024-02-26T05:56:11;31.75;;;16.63;;
84309;SDS011;74488;49.036;11.472;2024-02-26T05:57:12;26.33;;;16.27;;
84309;SDS011;74488;49.036;11.472;2024-02-26T05:58:14;31.50;;;22.88;;
84309;SDS011;74488;49.036;11.472;2024-02-26T05:59:16;27.77;;;17.70;;
84309;SDS011;74488;49.036;11.472;2024-02-26T06:00:17;23.88;;;15.45;;
84309;SDS011;74488;49.036;11.472;2024-02-26T06:01:20;31.05;;;16.45;;